sensor_id;sensor_type;location;lat;lon;timestamp;temperature;humidity
19033;DHT22;9649;51.042;13.804;2022-12-07T00:00:20;3.80;99.90
19033;DHT22;9649;51.042;13.804;2022-12-07T00:05:23;3.90;99.90
19033;DHT22;9649;51.042;13.804;2022-12-07T00:10:27;3.90;99.90
19033;DHT22;9649;51.042;13.804;2022-12-07T00:15:30;3.90;99.90
19033;DHT22;9649;51.042;13.804;2022-12-07T00:20:33;3.80;99.90
19033;DHT22;9649;51.042;13.804;2022-12-07T00:25:37;3.90;99.90
19033;DHT22;9649;51.042;13.804;2022-12-07T00:30:40;3.80;99.90
19033;DHT22;9649;51.042;13.804;2022-12-07T00:35:42;3.80;99.90
19033;DHT22;9649;51.042;13.804;2022-12-07T00:40:57;3.80;99.90
19033;DHT22;9649;51.042;13.804;2022-12-07T00:46:00;3.80;99.90
19033;DHT22;9649;51.042;13.804;2022-12-07T00:51:04;3.70;99.90
19033;DHT22;9649;51.042;13.804;2022-12-07T00:56:10;3.70;99.90
19033;DHT22;9649;51.042;13.804;2022-12-07T01:01:13;3.80;99.90
19033;DHT22;9649;51.042;13.804;2022-12-07T01:06:18;3.90;99.90
19033;DHT22;9649;51.042;13.804;2022-12-07T01:11:24;3.90;99.90
19033;DHT22;9649;51.042;13.804;2022-12-07T01:16:28;3.80;99.90
19033;DHT22;9649;51.042;13.804;2022-12-07T01:21:34;3.80;99.90
19033;DHT22;9649;51.042;13.804;2022-12-07T01:26:42;3.80;99.90
19033;DHT22;9649;51.042;13.804;2022-12-07T01:32:03;3.90;99.90
19033;DHT22;9649;51.042;13.804;2022-12-07T01:37:54;3.80;99.90
19033;DHT22;9649;51.042;13.804;2022-12-07T01:56:08;3.90;99.90
19033;DHT22;9649;51.042;13.804;2022-12-07T02:02:12;3.90;99.90
19033;DHT22;9649;51.042;13.804;2022-12-07T02:07:39;3.80;99.90
19033;DHT22;9649;51.042;13.804;2022-12-07T02:13:22;3.90;99.90
19033;DHT22;9649;51.042;13.804;2022-12-07T02:19:03;3.80;99.90
19033;DHT22;9649;51.042;13.804;2022-12-07T02:24:56;3.90;99.90
19033;DHT22;9649;51.042;13.804;2022-12-07T02:31:07;3.80;99.90
19033;DHT22;9649;51.042;13.804;2022-12-07T02:36:45;3.60;99.90
19033;DHT22;9649;51.042;13.804;2022-12-07T02:42:21;3.40;99.90
19033;DHT22;9649;51.042;13.804;2022-12-07T02:47:58;3.30;99.90
19033;DHT22;9649;51.042;13.804;2022-12-07T02:53:38;3.10;99.90
19033;DHT22;9649;51.042;13.804;2022-12-07T02:59:33;3.00;99.90
19033;DHT22;9649;51.042;13.804;2022-12-07T03:11:00;3.00;99.90
19033;DHT22;9649;51.042;13.804;2022-12-07T03:16:55;3.00;99.90
19033;DHT22;9649;51.042;13.804;2022-12-07T03:22:30;3.10;99.90
19033;DHT22;9649;51.042;13.804;2022-12-07T03:28:19;3.10;99.90
19033;DHT22;9649;51.042;13.804;2022-12-07T03:34:06;3.10;99.90
19033;DHT22;9649;51.042;13.804;2022-12-07T03:39:56;2.90;99.90
19033;DHT22;9649;51.042;13.804;2022-12-07T03:45:43;2.70;99.90
19033;DHT22;9649;51.042;13.804;2022-12-07T03:51:19;2.60;99.90
19033;DHT22;9649;51.042;13.804;2022-12-07T03:57:20;2.90;99.90
19033;DHT22;9649;51.042;13.804;2022-12-07T04:02:37;2.90;99.90
19033;DHT22;9649;51.042;13.804;2022-12-07T04:07:59;2.80;99.90
19033;DHT22;9649;51.042;13.804;2022-12-07T04:13:39;2.80;99.90
19033;DHT22;9649;51.042;13.804;2022-12-07T04:19:04;2.90;99.90
19033;DHT22;9649;51.042;13.804;2022-12-07T04:24:32;3.00;99.90
19033;DHT22;9649;51.042;13.804;2022-12-07T04:30:21;3.00;99.90
19033;DHT22;9649;51.042;13.804;2022-12-07T04:35:54;3.00;99.90
19033;DHT22;9649;51.042;13.804;2022-12-07T04:47:26;2.40;99.90
19033;DHT22;9649;51.042;13.804;2022-12-07T04:52:53;2.50;99.90
19033;DHT22;9649;51.042;13.804;2022-12-07T04:58:14;2.20;99.90
19033;DHT22;9649;51.042;13.804;2022-12-07T05:03:45;1.80;99.90
19033;DHT22;9649;51.042;13.804;2022-12-07T05:09:14;1.50;99.90
19033;DHT22;9649;51.042;13.804;2022-12-07T05:14:41;1.30;99.90
19033;DHT22;9649;51.042;13.804;2022-12-07T05:20:05;1.40;99.90
19033;DHT22;9649;51.042;13.804;2022-12-07T05:25:29;1.80;99.90
19033;DHT22;9649;51.042;13.804;2022-12-07T05:30:47;1.70;99.90
19033;DHT22;9649;51.042;13.804;2022-12-07T05:36:28;1.80;99.90
19033;DHT22;9649;51.042;13.804;2022-12-07T05:42:12;2.00;99.90
19033;DHT22;9649;51.042;13.804;2022-12-07T05:48:05;2.30;99.90
19033;DHT22;9649;51.042;13.804;2022-12-07T05:53:30;2.80;99.90
19033;DHT22;9649;51.042;13.804;2022-12-07T05:58:52;2.70;99.90
19033;DHT22;9649;51.042;13.804;2022-12-07T06:04:37;2.70;99.90
19033;DHT22;9649;51.042;13.804;2022-12-07T06:09:52;2.80;99.90
19033;DHT22;9649;51.042;13.804;2022-12-07T06:14:58;2.90;99.90
19033;DHT22;9649;51.042;13.804;2022-12-07T06:20:07;3.00;99.90
19033;DHT22;9649;51.042;13.804;2022-12-07T06:25:31;3.10;99.90
19033;DHT22;9649;51.042;13.804;2022-12-07T06:30:45;3.10;99.90
19033;DHT22;9649;51.042;13.804;2022-12-07T06:35:48;3.00;99.90
19033;DHT22;9649;51.042;13.804;2022-12-07T06:40:52;3.20;99.90
19033;DHT22;9649;51.042;13.804;2022-12-07T06:45:54;3.40;99.90
19033;DHT22;9649;51.042;13.804;2022-12-07T06:50:58;3.60;99.90
19033;DHT22;9649;51.042;13.804;2022-12-07T06:56:02;3.80;99.90
19033;DHT22;9649;51.042;13.804;2022-12-07T07:01:09;3.80;99.90
19033;DHT22;9649;51.042;13.804;2022-12-07T07:06:13;3.70;14.20
19033;DHT22;9649;51.042;13.804;2022-12-07T07:11:17;3.80;1.00
19033;DHT22;9649;51.042;13.804;2022-12-07T07:16:20;3.80;85.60
19033;DHT22;9649;51.042;13.804;2022-12-07T07:21:23;3.70;99.90
19033;DHT22;9649;51.042;13.804;2022-12-07T07:31:32;3.50;99.90
19033;DHT22;9649;51.042;13.804;2022-12-07T07:36:36;3.30;99.90
19033;DHT22;9649;51.042;13.804;2022-12-07T07:41:39;3.10;99.90
19033;DHT22;9649;51.042;13.804;2022-12-07T07:46:43;3.10;99.90
19033;DHT22;9649;51.042;13.804;2022-12-07T07:51:46;3.10;99.90
19033;DHT22;9649;51.042;13.804;2022-12-07T07:56:49;3.10;99.90
19033;DHT22;9649;51.042;13.804;2022-12-07T08:01:53;3.20;99.90
19033;DHT22;9649;51.042;13.804;2022-12-07T08:06:56;3.30;99.90
19033;DHT22;9649;51.042;13.804;2022-12-07T08:11:59;3.40;99.90
19033;DHT22;9649;51.042;13.804;2022-12-07T08:17:03;3.60;99.90
19033;DHT22;9649;51.042;13.804;2022-12-07T08:22:06;3.70;99.90
19033;DHT22;9649;51.042;13.804;2022-12-07T08:27:09;3.90;99.90
19033;DHT22;9649;51.042;13.804;2022-12-07T08:32:13;4.10;99.90
19033;DHT22;9649;51.042;13.804;2022-12-07T08:37:16;4.30;99.90
19033;DHT22;9649;51.042;13.804;2022-12-07T08:42:19;4.40;99.90
19033;DHT22;9649;51.042;13.804;2022-12-07T08:47:25;4.60;99.90
19033;DHT22;9649;51.042;13.804;2022-12-07T08:52:28;5.10;99.90
19033;DHT22;9649;51.042;13.804;2022-12-07T08:57:33;5.40;32.70
19033;DHT22;9649;51.042;13.804;2022-12-07T09:02:39;5.80;1.00
19033;DHT22;9649;51.042;13.804;2022-12-07T09:07:43;7.20;99.90
19033;DHT22;9649;51.042;13.804;2022-12-07T09:12:46;6.60;1.00
19033;DHT22;9649;51.042;13.804;2022-12-07T09:17:50;6.60;1.00
19033;DHT22;9649;51.042;13.804;2022-12-07T09:22:54;6.30;1.00
19033;DHT22;9649;51.042;13.804;2022-12-07T09:27:57;6.00;1.00
19033;DHT22;9649;51.042;13.804;2022-12-07T09:33:01;6.20;1.00
19033;DHT22;9649;51.042;13.804;2022-12-07T09:38:04;8.80;1.00
19033;DHT22;9649;51.042;13.804;2022-12-07T09:43:12;10.10;70.00
19033;DHT22;9649;51.042;13.804;2022-12-07T09:48:19;8.70;1.00
19033;DHT22;9649;51.042;13.804;2022-12-07T09:53:26;7.50;99.90
19033;DHT22;9649;51.042;13.804;2022-12-07T09:58:31;6.80;1.00
19033;DHT22;9649;51.042;13.804;2022-12-07T10:03:37;7.60;99.90
19033;DHT22;9649;51.042;13.804;2022-12-07T10:08:41;10.80;1.00
19033;DHT22;9649;51.042;13.804;2022-12-07T10:13:46;11.20;1.00
19033;DHT22;9649;51.042;13.804;2022-12-07T10:18:52;12.00;1.00
19033;DHT22;9649;51.042;13.804;2022-12-07T10:24:02;14.50;99.90
19033;DHT22;9649;51.042;13.804;2022-12-07T10:29:15;18.50;1.00
19033;DHT22;9649;51.042;13.804;2022-12-07T10:34:23;17.50;1.00
19033;DHT22;9649;51.042;13.804;2022-12-07T10:39:26;16.50;1.00
19033;DHT22;9649;51.042;13.804;2022-12-07T10:44:31;13.30;1.00
19033;DHT22;9649;51.042;13.804;2022-12-07T10:55:21;8.30;1.00
19033;DHT22;9649;51.042;13.804;2022-12-07T11:00:29;7.70;1.00
19033;DHT22;9649;51.042;13.804;2022-12-07T11:05:40;7.20;1.00
19033;DHT22;9649;51.042;13.804;2022-12-07T11:10:53;6.90;1.00
19033;DHT22;9649;51.042;13.804;2022-12-07T11:16:05;6.80;91.60
19033;DHT22;9649;51.042;13.804;2022-12-07T11:21:17;6.70;1.00
19033;DHT22;9649;51.042;13.804;2022-12-07T11:32:02;7.10;1.00
19033;DHT22;9649;51.042;13.804;2022-12-07T11:37:12;7.00;1.00
19033;DHT22;9649;51.042;13.804;2022-12-07T11:42:20;6.70;18.90
19033;DHT22;9649;51.042;13.804;2022-12-07T11:47:30;6.20;1.00
19033;DHT22;9649;51.042;13.804;2022-12-07T11:52:43;5.60;88.70
19033;DHT22;9649;51.042;13.804;2022-12-07T11:57:54;5.30;99.90
19033;DHT22;9649;51.042;13.804;2022-12-07T12:03:05;5.10;99.90
19033;DHT22;9649;51.042;13.804;2022-12-07T12:08:16;5.20;99.90
19033;DHT22;9649;51.042;13.804;2022-12-07T12:13:59;5.20;99.90
19033;DHT22;9649;51.042;13.804;2022-12-07T12:19:31;5.20;99.90
19033;DHT22;9649;51.042;13.804;2022-12-07T12:24:38;6.70;99.90
19033;DHT22;9649;51.042;13.804;2022-12-07T12:29:42;7.80;1.00
19033;DHT22;9649;51.042;13.804;2022-12-07T12:35:02;7.00;1.00
19033;DHT22;9649;51.042;13.804;2022-12-07T12:40:41;6.30;1.00
19033;DHT22;9649;51.042;13.804;2022-12-07T12:51:37;5.70;50.70
19033;DHT22;9649;51.042;13.804;2022-12-07T12:56:46;5.40;1.00
19033;DHT22;9649;51.042;13.804;2022-12-07T13:01:55;5.20;1.00
19033;DHT22;9649;51.042;13.804;2022-12-07T13:06:58;5.20;1.00
19033;DHT22;9649;51.042;13.804;2022-12-07T13:12:05;5.00;99.90
19033;DHT22;9649;51.042;13.804;2022-12-07T13:22:58;4.20;99.90
19033;DHT22;9649;51.042;13.804;2022-12-07T13:28:07;4.10;99.90
19033;DHT22;9649;51.042;13.804;2022-12-07T13:33:12;4.00;99.90
19033;DHT22;9649;51.042;13.804;2022-12-07T13:38:23;3.90;99.90
19033;DHT22;9649;51.042;13.804;2022-12-07T13:43:27;4.00;99.90
19033;DHT22;9649;51.042;13.804;2022-12-07T13:48:31;3.90;99.90
19033;DHT22;9649;51.042;13.804;2022-12-07T13:53:46;3.80;99.90
19033;DHT22;9649;51.042;13.804;2022-12-07T13:58:49;3.70;99.90
19033;DHT22;9649;51.042;13.804;2022-12-07T14:03:52;3.90;99.90
19033;DHT22;9649;51.042;13.804;2022-12-07T14:09:16;4.00;99.90
19033;DHT22;9649;51.042;13.804;2022-12-07T14:14:22;4.00;99.90
19033;DHT22;9649;51.042;13.804;2022-12-07T14:19:49;4.10;99.90
19033;DHT22;9649;51.042;13.804;2022-12-07T14:25:00;4.20;99.90
19033;DHT22;9649;51.042;13.804;2022-12-07T14:30:06;4.30;99.90
19033;DHT22;9649;51.042;13.804;2022-12-07T14:35:10;4.20;99.90
19033;DHT22;9649;51.042;13.804;2022-12-07T14:40:17;4.20;99.90
19033;DHT22;9649;51.042;13.804;2022-12-07T14:45:21;4.10;99.90
19033;DHT22;9649;51.042;13.804;2022-12-07T14:50:24;4.00;99.90
19033;DHT22;9649;51.042;13.804;2022-12-07T14:55:30;4.00;99.90
19033;DHT22;9649;51.042;13.804;2022-12-07T15:00:33;4.00;99.90
19033;DHT22;9649;51.042;13.804;2022-12-07T15:05:37;3.80;99.90
19033;DHT22;9649;51.042;13.804;2022-12-07T15:10:41;3.90;99.90
19033;DHT22;9649;51.042;13.804;2022-12-07T15:15:44;3.90;99.90
19033;DHT22;9649;51.042;13.804;2022-12-07T15:20:47;4.00;99.90
19033;DHT22;9649;51.042;13.804;2022-12-07T15:25:51;4.10;99.90
19033;DHT22;9649;51.042;13.804;2022-12-07T15:30:54;4.20;99.90
19033;DHT22;9649;51.042;13.804;2022-12-07T15:35:59;4.20;99.90
19033;DHT22;9649;51.042;13.804;2022-12-07T15:41:03;4.40;99.90
19033;DHT22;9649;51.042;13.804;2022-12-07T15:46:06;4.60;99.90
19033;DHT22;9649;51.042;13.804;2022-12-07T15:51:09;4.70;99.90
19033;DHT22;9649;51.042;13.804;2022-12-07T15:56:13;4.80;99.90
19033;DHT22;9649;51.042;13.804;2022-12-07T16:01:17;4.90;99.90
19033;DHT22;9649;51.042;13.804;2022-12-07T16:06:21;4.70;99.90
19033;DHT22;9649;51.042;13.804;2022-12-07T16:11:25;4.70;99.90
19033;DHT22;9649;51.042;13.804;2022-12-07T16:16:28;4.60;99.90
19033;DHT22;9649;51.042;13.804;2022-12-07T16:21:32;4.50;99.90
19033;DHT22;9649;51.042;13.804;2022-12-07T16:26:36;4.40;99.90
19033;DHT22;9649;51.042;13.804;2022-12-07T16:31:39;4.40;99.90
19033;DHT22;9649;51.042;13.804;2022-12-07T16:36:42;4.40;99.90
19033;DHT22;9649;51.042;13.804;2022-12-07T16:42:06;4.20;99.90
19033;DHT22;9649;51.042;13.804;2022-12-07T16:47:09;4.10;99.90
19033;DHT22;9649;51.042;13.804;2022-12-07T16:52:12;4.10;99.90
19033;DHT22;9649;51.042;13.804;2022-12-07T16:57:22;4.10;99.90
19033;DHT22;9649;51.042;13.804;2022-12-07T17:02:25;4.10;99.90
19033;DHT22;9649;51.042;13.804;2022-12-07T17:07:28;4.20;99.90
19033;DHT22;9649;51.042;13.804;2022-12-07T17:12:32;4.40;99.90
19033;DHT22;9649;51.042;13.804;2022-12-07T17:17:35;4.50;14.40
19033;DHT22;9649;51.042;13.804;2022-12-07T17:22:38;4.50;1.00
19033;DHT22;9649;51.042;13.804;2022-12-07T17:27:42;4.60;1.00
19033;DHT22;9649;51.042;13.804;2022-12-07T17:32:45;4.60;1.00
19033;DHT22;9649;51.042;13.804;2022-12-07T17:37:48;4.50;1.00
19033;DHT22;9649;51.042;13.804;2022-12-07T17:42:53;4.40;1.00
19033;DHT22;9649;51.042;13.804;2022-12-07T17:47:56;4.30;1.00
19033;DHT22;9649;51.042;13.804;2022-12-07T17:52:59;4.30;1.00
19033;DHT22;9649;51.042;13.804;2022-12-07T17:58:14;4.40;1.00
19033;DHT22;9649;51.042;13.804;2022-12-07T18:03:17;4.50;1.00
19033;DHT22;9649;51.042;13.804;2022-12-07T18:08:20;4.50;1.00
19033;DHT22;9649;51.042;13.804;2022-12-07T18:13:24;4.50;1.00
19033;DHT22;9649;51.042;13.804;2022-12-07T18:18:40;4.50;1.00
19033;DHT22;9649;51.042;13.804;2022-12-07T18:23:50;4.60;1.00
19033;DHT22;9649;51.042;13.804;2022-12-07T18:28:55;4.60;1.00
19033;DHT22;9649;51.042;13.804;2022-12-07T18:34:00;4.50;1.00
19033;DHT22;9649;51.042;13.804;2022-12-07T18:39:06;4.20;1.00
19033;DHT22;9649;51.042;13.804;2022-12-07T18:44:10;4.10;1.00
19033;DHT22;9649;51.042;13.804;2022-12-07T18:49:14;3.90;1.00
19033;DHT22;9649;51.042;13.804;2022-12-07T18:54:17;3.70;19.80
19033;DHT22;9649;51.042;13.804;2022-12-07T18:59:21;3.60;1.00
19033;DHT22;9649;51.042;13.804;2022-12-07T19:04:42;3.80;1.00
19033;DHT22;9649;51.042;13.804;2022-12-07T19:09:45;3.90;1.00
19033;DHT22;9649;51.042;13.804;2022-12-07T19:14:49;3.70;1.00
19033;DHT22;9649;51.042;13.804;2022-12-07T19:19:52;3.60;1.00
19033;DHT22;9649;51.042;13.804;2022-12-07T19:24:55;3.50;1.00
19033;DHT22;9649;51.042;13.804;2022-12-07T19:43:09;3.60;1.00
19033;DHT22;9649;51.042;13.804;2022-12-07T19:48:49;3.50;1.00
19033;DHT22;9649;51.042;13.804;2022-12-07T19:54:43;3.60;1.00
19033;DHT22;9649;51.042;13.804;2022-12-07T20:00:39;3.90;1.00
19033;DHT22;9649;51.042;13.804;2022-12-07T20:13:09;3.90;1.00
19033;DHT22;9649;51.042;13.804;2022-12-07T20:25:35;4.10;1.00
19033;DHT22;9649;51.042;13.804;2022-12-07T20:30:51;4.00;1.00
19033;DHT22;9649;51.042;13.804;2022-12-07T20:36:18;4.10;1.00
19033;DHT22;9649;51.042;13.804;2022-12-07T20:42:13;4.00;1.00
19033;DHT22;9649;51.042;13.804;2022-12-07T21:01:02;3.80;1.00
19033;DHT22;9649;51.042;13.804;2022-12-07T21:06:10;3.80;1.00
19033;DHT22;9649;51.042;13.804;2022-12-07T21:11:40;3.60;1.00
19033;DHT22;9649;51.042;13.804;2022-12-07T21:19:00;3.60;1.00
19033;DHT22;9649;51.042;13.804;2022-12-07T21:22:19;3.70;1.00
19033;DHT22;9649;51.042;13.804;2022-12-07T21:27:28;3.70;1.00
19033;DHT22;9649;51.042;13.804;2022-12-07T21:39:28;3.70;1.00
19033;DHT22;9649;51.042;13.804;2022-12-07T21:44:58;3.70;1.00
19033;DHT22;9649;51.042;13.804;2022-12-07T21:50:38;3.70;1.00
19033;DHT22;9649;51.042;13.804;2022-12-07T23:37:32;4.10;99.90
19033;DHT22;9649;51.042;13.804;2022-12-07T23:43:30;4.20;1.00
19033;DHT22;9649;51.042;13.804;2022-12-07T23:49:12;4.20;1.00
